sensor_id;sensor_type;location;lat;lon;timestamp;pressure;altitude;pressure_sealevel;temperature;humidity
34566;BME280;20803;42.676;26.348;2023-09-19T00:01:06;99054.50;;;19.71;63.05
34566;BME280;20803;42.676;26.348;2023-09-19T00:03:37;99059.69;;;19.64;63.33
34566;BME280;20803;42.676;26.348;2023-09-19T00:06:04;99056.00;;;19.45;64.10
34566;BME280;20803;42.676;26.348;2023-09-19T00:08:34;99049.06;;;19.37;64.43
34566;BME280;20803;42.676;26.348;2023-09-19T00:10:59;99049.06;;;19.37;64.21
34566;BME280;20803;42.676;26.348;2023-09-19T00:13:34;99052.16;;;19.30;64.46
34566;BME280;20803;42.676;26.348;2023-09-19T00:16:08;99055.41;;;19.19;65.03
34566;BME280;20803;42.676;26.348;2023-09-19T00:18:37;99057.72;;;19.12;65.44
34566;BME280;20803;42.676;26.348;2023-09-19T00:21:03;99053.41;;;18.98;66.07
34566;BME280;20803;42.676;26.348;2023-09-19T00:23:30;99059.63;;;18.93;66.61
34566;BME280;20803;42.676;26.348;2023-09-19T00:26:00;99065.09;;;18.87;66.55
34566;BME280;20803;42.676;26.348;2023-09-19T00:28:26;99060.25;;;18.88;67.02
34566;BME280;20803;42.676;26.348;2023-09-19T00:30:51;99064.81;;;18.73;67.88
34566;BME280;20803;42.676;26.348;2023-09-19T00:33:18;99067.34;;;18.71;67.97
34566;BME280;20803;42.676;26.348;2023-09-19T00:35:48;99054.50;;;18.70;68.15
34566;BME280;20803;42.676;26.348;2023-09-19T00:38:14;99054.34;;;18.73;68.15
34566;BME280;20803;42.676;26.348;2023-09-19T00:40:45;99057.06;;;18.77;67.85
34566;BME280;20803;42.676;26.348;2023-09-19T00:43:11;99057.75;;;18.68;68.54
34566;BME280;20803;42.676;26.348;2023-09-19T00:45:38;99055.88;;;18.65;69.06
34566;BME280;20803;42.676;26.348;2023-09-19T00:48:04;99054.69;;;18.75;68.31
34566;BME280;20803;42.676;26.348;2023-09-19T00:50:31;99052.38;;;18.61;68.81
34566;BME280;20803;42.676;26.348;2023-09-19T00:52:58;99057.38;;;18.57;69.51
34566;BME280;20803;42.676;26.348;2023-09-19T00:55:25;99053.97;;;18.62;69.21
34566;BME280;20803;42.676;26.348;2023-09-19T00:57:51;99051.41;;;18.55;69.49
34566;BME280;20803;42.676;26.348;2023-09-19T01:00:18;99052.91;;;18.47;70.25
34566;BME280;20803;42.676;26.348;2023-09-19T01:02:45;99060.88;;;18.48;69.73
34566;BME280;20803;42.676;26.348;2023-09-19T01:05:11;99065.81;;;18.57;69.61
34566;BME280;20803;42.676;26.348;2023-09-19T01:07:41;99071.00;;;18.58;69.16
34566;BME280;20803;42.676;26.348;2023-09-19T01:10:09;99072.88;;;18.61;69.25
34566;BME280;20803;42.676;26.348;2023-09-19T01:15:14;99069.22;;;18.74;68.33
34566;BME280;20803;42.676;26.348;2023-09-19T01:17:53;99065.09;;;18.87;67.20
34566;BME280;20803;42.676;26.348;2023-09-19T01:20:39;99064.81;;;18.94;66.50
34566;BME280;20803;42.676;26.348;2023-09-19T01:26:45;99068.53;;;19.13;65.19
34566;BME280;20803;42.676;26.348;2023-09-19T01:31:57;99059.88;;;19.08;64.70
34566;BME280;20803;42.676;26.348;2023-09-19T01:34:26;99061.66;;;19.14;64.33
34566;BME280;20803;42.676;26.348;2023-09-19T01:36:52;99061.50;;;19.18;63.89
34566;BME280;20803;42.676;26.348;2023-09-19T01:39:17;99054.66;;;18.97;64.53
34566;BME280;20803;42.676;26.348;2023-09-19T01:41:58;99055.31;;;19.01;64.30
34566;BME280;20803;42.676;26.348;2023-09-19T01:44:48;99051.06;;;18.96;64.42
34566;BME280;20803;42.676;26.348;2023-09-19T01:50:06;99040.66;;;19.15;63.65
34566;BME280;20803;42.676;26.348;2023-09-19T01:52:43;99051.19;;;18.93;63.95
34566;BME280;20803;42.676;26.348;2023-09-19T01:55:12;99047.38;;;18.78;64.53
34566;BME280;20803;42.676;26.348;2023-09-19T01:58:01;99051.94;;;18.62;65.30
34566;BME280;20803;42.676;26.348;2023-09-19T02:00:28;99045.84;;;18.64;65.40
34566;BME280;20803;42.676;26.348;2023-09-19T02:02:56;99046.63;;;18.86;64.84
34566;BME280;20803;42.676;26.348;2023-09-19T02:05:24;99049.34;;;18.99;64.36
34566;BME280;20803;42.676;26.348;2023-09-19T02:07:51;99043.28;;;19.10;63.67
34566;BME280;20803;42.676;26.348;2023-09-19T02:10:18;99049.88;;;19.07;63.32
34566;BME280;20803;42.676;26.348;2023-09-19T02:12:43;99048.97;;;18.88;63.63
34566;BME280;20803;42.676;26.348;2023-09-19T02:15:10;99054.22;;;18.77;64.28
34566;BME280;20803;42.676;26.348;2023-09-19T02:17:35;99047.66;;;18.80;64.10
34566;BME280;20803;42.676;26.348;2023-09-19T02:20:00;99047.38;;;18.78;63.96
34566;BME280;20803;42.676;26.348;2023-09-19T02:22:27;99045.44;;;18.75;64.11
34566;BME280;20803;42.676;26.348;2023-09-19T02:24:53;99045.72;;;18.68;64.73
34566;BME280;20803;42.676;26.348;2023-09-19T02:27:19;99041.13;;;18.61;64.80
34566;BME280;20803;42.676;26.348;2023-09-19T02:29:47;99038.69;;;18.50;65.59
34566;BME280;20803;42.676;26.348;2023-09-19T02:32:14;99037.88;;;18.62;65.30
34566;BME280;20803;42.676;26.348;2023-09-19T02:34:40;99036.19;;;18.65;65.30
34566;BME280;20803;42.676;26.348;2023-09-19T02:37:07;99028.63;;;18.84;64.61
34566;BME280;20803;42.676;26.348;2023-09-19T02:39:34;99033.69;;;18.98;63.84
34566;BME280;20803;42.676;26.348;2023-09-19T02:41:59;99033.75;;;19.07;63.43
34566;BME280;20803;42.676;26.348;2023-09-19T02:44:25;99028.28;;;19.13;63.18
34566;BME280;20803;42.676;26.348;2023-09-19T02:46:50;99030.66;;;19.14;63.00
34566;BME280;20803;42.676;26.348;2023-09-19T02:49:16;99022.38;;;19.20;62.65
34566;BME280;20803;42.676;26.348;2023-09-19T02:51:43;99024.00;;;18.99;63.28
34566;BME280;20803;42.676;26.348;2023-09-19T02:54:09;99025.84;;;18.93;63.71
34566;BME280;20803;42.676;26.348;2023-09-19T02:56:35;99012.81;;;18.86;64.02
34566;BME280;20803;42.676;26.348;2023-09-19T02:59:01;99014.75;;;18.68;65.03
34566;BME280;20803;42.676;26.348;2023-09-19T03:01:28;99018.88;;;18.76;64.73
34566;BME280;20803;42.676;26.348;2023-09-19T03:03:54;99018.94;;;18.63;65.48
34566;BME280;20803;42.676;26.348;2023-09-19T03:06:20;99013.63;;;18.43;67.16
34566;BME280;20803;42.676;26.348;2023-09-19T03:08:47;99021.41;;;18.39;67.75
34566;BME280;20803;42.676;26.348;2023-09-19T03:11:14;99012.63;;;18.37;68.14
34566;BME280;20803;42.676;26.348;2023-09-19T03:13:41;99012.03;;;18.42;68.27
34566;BME280;20803;42.676;26.348;2023-09-19T03:16:08;99007.00;;;18.37;68.93
34566;BME280;20803;42.676;26.348;2023-09-19T03:18:36;98999.88;;;18.45;68.84
34566;BME280;20803;42.676;26.348;2023-09-19T03:21:02;99004.00;;;18.53;68.44
34566;BME280;20803;42.676;26.348;2023-09-19T03:23:28;98997.03;;;18.58;68.31
34566;BME280;20803;42.676;26.348;2023-09-19T03:25:57;99000.22;;;18.47;69.15
34566;BME280;20803;42.676;26.348;2023-09-19T03:28:24;98993.66;;;18.50;69.37
34566;BME280;20803;42.676;26.348;2023-09-19T03:31:03;98992.63;;;18.35;70.27
34566;BME280;20803;42.676;26.348;2023-09-19T03:33:29;98989.81;;;18.35;70.30
34566;BME280;20803;42.676;26.348;2023-09-19T03:35:57;98992.94;;;18.37;70.20
34566;BME280;20803;42.676;26.348;2023-09-19T03:38:25;98989.16;;;18.31;70.75
34566;BME280;20803;42.676;26.348;2023-09-19T03:40:50;98984.75;;;18.30;71.04
34566;BME280;20803;42.676;26.348;2023-09-19T03:43:16;98990.72;;;18.32;71.06
34566;BME280;20803;42.676;26.348;2023-09-19T03:45:41;98989.19;;;18.18;72.39
34566;BME280;20803;42.676;26.348;2023-09-19T03:48:10;98992.56;;;18.26;72.26
34566;BME280;20803;42.676;26.348;2023-09-19T03:50:36;98984.63;;;18.34;71.92
34566;BME280;20803;42.676;26.348;2023-09-19T03:53:02;98984.38;;;18.19;72.96
34566;BME280;20803;42.676;26.348;2023-09-19T03:55:27;98982.28;;;18.10;73.65
34566;BME280;20803;42.676;26.348;2023-09-19T03:57:53;98996.19;;;17.92;75.39
34566;BME280;20803;42.676;26.348;2023-09-19T04:00:19;98996.97;;;17.93;75.94
34566;BME280;20803;42.676;26.348;2023-09-19T04:02:47;98993.25;;;17.96;76.03
34566;BME280;20803;42.676;26.348;2023-09-19T04:05:13;99000.63;;;17.80;77.83
34566;BME280;20803;42.676;26.348;2023-09-19T04:07:38;98995.50;;;17.88;78.00
34566;BME280;20803;42.676;26.348;2023-09-19T04:10:04;99002.16;;;17.81;79.06
34566;BME280;20803;42.676;26.348;2023-09-19T04:12:29;98998.94;;;17.70;80.35
34566;BME280;20803;42.676;26.348;2023-09-19T04:14:55;99006.06;;;17.62;81.18
34566;BME280;20803;42.676;26.348;2023-09-19T04:17:20;99010.59;;;17.81;80.08
34566;BME280;20803;42.676;26.348;2023-09-19T04:19:46;99009.91;;;17.90;79.17
34566;BME280;20803;42.676;26.348;2023-09-19T04:22:11;99013.72;;;17.96;78.81
34566;BME280;20803;42.676;26.348;2023-09-19T04:24:38;99004.34;;;17.99;78.97
34566;BME280;20803;42.676;26.348;2023-09-19T04:27:04;99003.41;;;18.15;78.11
34566;BME280;20803;42.676;26.348;2023-09-19T04:29:30;99008.44;;;18.20;77.80
34566;BME280;20803;42.676;26.348;2023-09-19T04:31:56;99007.16;;;18.34;77.23
34566;BME280;20803;42.676;26.348;2023-09-19T04:34:24;99009.38;;;18.39;76.86
34566;BME280;20803;42.676;26.348;2023-09-19T04:36:50;99009.22;;;18.42;76.65
34566;BME280;20803;42.676;26.348;2023-09-19T04:39:16;99011.88;;;18.58;75.55
34566;BME280;20803;42.676;26.348;2023-09-19T04:41:42;99001.59;;;18.64;75.28
34566;BME280;20803;42.676;26.348;2023-09-19T04:44:10;99007.94;;;18.78;75.13
34566;BME280;20803;42.676;26.348;2023-09-19T04:46:35;99005.75;;;18.82;74.59
34566;BME280;20803;42.676;26.348;2023-09-19T04:49:01;98998.78;;;18.95;74.30
34566;BME280;20803;42.676;26.348;2023-09-19T04:51:27;99000.84;;;19.04;73.48
34566;BME280;20803;42.676;26.348;2023-09-19T04:53:58;99007.78;;;19.12;73.19
34566;BME280;20803;42.676;26.348;2023-09-19T04:56:23;99000.13;;;19.22;72.66
34566;BME280;20803;42.676;26.348;2023-09-19T04:58:49;99004.91;;;19.43;71.66
34566;BME280;20803;42.676;26.348;2023-09-19T05:01:14;99006.28;;;19.69;70.52
34566;BME280;20803;42.676;26.348;2023-09-19T05:03:40;98995.16;;;19.84;69.28
34566;BME280;20803;42.676;26.348;2023-09-19T05:06:06;98994.25;;;19.87;69.20
34566;BME280;20803;42.676;26.348;2023-09-19T05:08:31;99005.22;;;20.03;68.40
34566;BME280;20803;42.676;26.348;2023-09-19T05:10:56;99007.84;;;20.25;67.61
34566;BME280;20803;42.676;26.348;2023-09-19T05:13:22;99002.41;;;20.40;67.28
34566;BME280;20803;42.676;26.348;2023-09-19T05:15:52;99009.13;;;20.60;66.09
34566;BME280;20803;42.676;26.348;2023-09-19T05:18:17;99008.44;;;20.84;64.85
34566;BME280;20803;42.676;26.348;2023-09-19T05:20:43;99009.44;;;21.14;63.53
34566;BME280;20803;42.676;26.348;2023-09-19T05:23:09;99004.19;;;21.39;62.02
34566;BME280;20803;42.676;26.348;2023-09-19T05:25:37;99008.03;;;21.51;61.18
34566;BME280;20803;42.676;26.348;2023-09-19T05:28:03;99008.28;;;21.86;59.60
34566;BME280;20803;42.676;26.348;2023-09-19T05:30:31;99012.28;;;22.03;58.47
34566;BME280;20803;42.676;26.348;2023-09-19T05:32:57;99004.88;;;22.06;57.96
34566;BME280;20803;42.676;26.348;2023-09-19T05:35:23;99005.88;;;22.17;57.71
34566;BME280;20803;42.676;26.348;2023-09-19T05:37:53;98996.16;;;22.33;57.29
34566;BME280;20803;42.676;26.348;2023-09-19T05:40:19;98997.13;;;22.45;56.74
34566;BME280;20803;42.676;26.348;2023-09-19T05:42:45;99001.75;;;22.57;56.18
34566;BME280;20803;42.676;26.348;2023-09-19T05:45:11;98997.31;;;22.80;55.72
34566;BME280;20803;42.676;26.348;2023-09-19T05:47:40;98998.28;;;22.91;55.23
34566;BME280;20803;42.676;26.348;2023-09-19T05:50:11;99002.25;;;22.55;56.02
34566;BME280;20803;42.676;26.348;2023-09-19T05:52:37;99008.59;;;22.50;55.94
34566;BME280;20803;42.676;26.348;2023-09-19T05:55:06;99004.19;;;22.49;55.97
34566;BME280;20803;42.676;26.348;2023-09-19T05:57:36;98998.47;;;22.73;55.64
34566;BME280;20803;42.676;26.348;2023-09-19T06:00:05;98998.47;;;22.73;55.11
34566;BME280;20803;42.676;26.348;2023-09-19T06:02:36;99002.84;;;22.89;54.98
34566;BME280;20803;42.676;26.348;2023-09-19T06:05:01;99001.69;;;23.10;54.52
34566;BME280;20803;42.676;26.348;2023-09-19T06:07:27;99006.34;;;23.13;54.43
34566;BME280;20803;42.676;26.348;2023-09-19T06:10:02;99006.75;;;23.21;54.27
34566;BME280;20803;42.676;26.348;2023-09-19T06:12:28;98999.97;;;23.33;53.90
34566;BME280;20803;42.676;26.348;2023-09-19T06:14:53;99008.94;;;23.46;53.79
34566;BME280;20803;42.676;26.348;2023-09-19T06:17:19;99004.25;;;23.58;53.81
34566;BME280;20803;42.676;26.348;2023-09-19T06:19:45;99002.81;;;23.68;52.80
34566;BME280;20803;42.676;26.348;2023-09-19T06:22:15;99007.66;;;23.82;52.17
34566;BME280;20803;42.676;26.348;2023-09-19T06:24:43;99005.06;;;23.78;51.35
34566;BME280;20803;42.676;26.348;2023-09-19T06:27:08;99008.75;;;23.84;52.43
34566;BME280;20803;42.676;26.348;2023-09-19T06:29:34;99002.53;;;24.21;51.45
34566;BME280;20803;42.676;26.348;2023-09-19T06:31:59;99002.59;;;24.52;50.69
34566;BME280;20803;42.676;26.348;2023-09-19T06:34:24;99003.81;;;24.72;49.83
34566;BME280;20803;42.676;26.348;2023-09-19T06:36:51;99000.78;;;24.75;49.21
34566;BME280;20803;42.676;26.348;2023-09-19T06:39:17;99003.09;;;24.77;49.08
34566;BME280;20803;42.676;26.348;2023-09-19T06:41:42;99001.66;;;24.87;48.89
34566;BME280;20803;42.676;26.348;2023-09-19T06:44:07;99009.31;;;24.75;48.73
34566;BME280;20803;42.676;26.348;2023-09-19T06:46:34;98999.41;;;24.71;49.11
34566;BME280;20803;42.676;26.348;2023-09-19T06:49:01;98998.47;;;24.53;48.02
34566;BME280;20803;42.676;26.348;2023-09-19T06:51:31;99003.97;;;24.37;48.62
34566;BME280;20803;42.676;26.348;2023-09-19T06:53:57;99003.56;;;24.23;49.22
34566;BME280;20803;42.676;26.348;2023-09-19T06:56:23;99002.53;;;24.21;48.92
34566;BME280;20803;42.676;26.348;2023-09-19T06:58:50;99004.69;;;24.11;48.64
34566;BME280;20803;42.676;26.348;2023-09-19T07:01:15;99004.69;;;24.11;48.86
34566;BME280;20803;42.676;26.348;2023-09-19T07:03:41;99006.25;;;24.12;48.61
34566;BME280;20803;42.676;26.348;2023-09-19T07:06:06;99003.97;;;24.16;48.67
34566;BME280;20803;42.676;26.348;2023-09-19T07:08:32;99003.19;;;24.36;48.99
34566;BME280;20803;42.676;26.348;2023-09-19T07:10:57;99006.06;;;24.62;47.70
34566;BME280;20803;42.676;26.348;2023-09-19T07:13:23;99013.22;;;24.83;47.58
34566;BME280;20803;42.676;26.348;2023-09-19T07:15:50;99010.81;;;24.96;47.04
34566;BME280;20803;42.676;26.348;2023-09-19T07:18:16;99013.25;;;25.09;46.81
34566;BME280;20803;42.676;26.348;2023-09-19T07:20:45;99006.91;;;25.25;46.17
34566;BME280;20803;42.676;26.348;2023-09-19T07:23:15;99009.44;;;25.18;46.12
34566;BME280;20803;42.676;26.348;2023-09-19T07:25:41;99004.63;;;24.98;46.76
34566;BME280;20803;42.676;26.348;2023-09-19T07:28:07;99005.69;;;25.00;46.98
34566;BME280;20803;42.676;26.348;2023-09-19T07:30:38;98999.06;;;25.15;47.06
34566;BME280;20803;42.676;26.348;2023-09-19T07:33:07;99002.31;;;25.33;47.16
34566;BME280;20803;42.676;26.348;2023-09-19T07:35:37;98996.44;;;25.42;46.62
34566;BME280;20803;42.676;26.348;2023-09-19T07:38:05;98995.38;;;25.09;46.72
34566;BME280;20803;42.676;26.348;2023-09-19T07:40:31;98992.06;;;25.10;47.06
34566;BME280;20803;42.676;26.348;2023-09-19T07:42:56;98999.63;;;25.19;46.13
34566;BME280;20803;42.676;26.348;2023-09-19T07:45:22;98996.47;;;25.11;46.36
34566;BME280;20803;42.676;26.348;2023-09-19T07:47:48;98987.56;;;24.98;46.83
34566;BME280;20803;42.676;26.348;2023-09-19T07:50:18;98990.03;;;25.16;46.81
34566;BME280;20803;42.676;26.348;2023-09-19T07:52:45;98991.44;;;25.32;46.80
34566;BME280;20803;42.676;26.348;2023-09-19T07:55:11;98989.50;;;25.49;45.95
34566;BME280;20803;42.676;26.348;2023-09-19T07:57:42;98988.53;;;25.58;46.56
34566;BME280;20803;42.676;26.348;2023-09-19T08:00:09;98978.81;;;25.81;44.97
34566;BME280;20803;42.676;26.348;2023-09-19T08:02:39;98992.38;;;25.55;44.86
34566;BME280;20803;42.676;26.348;2023-09-19T08:05:11;98985.19;;;25.28;45.46
34566;BME280;20803;42.676;26.348;2023-09-19T08:07:38;98979.44;;;25.17;46.05
34566;BME280;20803;42.676;26.348;2023-09-19T08:10:04;98980.38;;;25.08;45.70
34566;BME280;20803;42.676;26.348;2023-09-19T08:12:33;98978.34;;;24.83;46.36
34566;BME280;20803;42.676;26.348;2023-09-19T08:15:01;98975.63;;;24.94;46.54
34566;BME280;20803;42.676;26.348;2023-09-19T08:17:27;98966.41;;;25.04;46.84
34566;BME280;20803;42.676;26.348;2023-09-19T08:19:52;98970.13;;;25.16;46.96
34566;BME280;20803;42.676;26.348;2023-09-19T08:22:21;98965.75;;;25.21;45.75
34566;BME280;20803;42.676;26.348;2023-09-19T08:24:48;98964.81;;;25.35;44.93
34566;BME280;20803;42.676;26.348;2023-09-19T08:27:14;98965.09;;;25.37;45.03
34566;BME280;20803;42.676;26.348;2023-09-19T08:29:43;98959.72;;;25.50;44.86
34566;BME280;20803;42.676;26.348;2023-09-19T08:32:09;98961.63;;;25.59;44.69
34566;BME280;20803;42.676;26.348;2023-09-19T08:34:34;98951.75;;;25.54;44.56
34566;BME280;20803;42.676;26.348;2023-09-19T08:37:04;98955.06;;;25.47;45.09
34566;BME280;20803;42.676;26.348;2023-09-19T08:39:29;98953.53;;;25.52;44.75
34566;BME280;20803;42.676;26.348;2023-09-19T08:42:00;98946.28;;;25.51;44.14
34566;BME280;20803;42.676;26.348;2023-09-19T08:44:26;98945.22;;;25.42;44.76
34566;BME280;20803;42.676;26.348;2023-09-19T08:47:01;98948.03;;;25.37;45.52
34566;BME280;20803;42.676;26.348;2023-09-19T08:52:43;98941.84;;;25.44;44.77
34566;BME280;20803;42.676;26.348;2023-09-19T08:55:12;98936.91;;;25.39;45.00
34566;BME280;20803;42.676;26.348;2023-09-19T08:57:38;98961.34;;;25.20;47.09
34566;BME280;20803;42.676;26.348;2023-09-19T09:00:07;98944.03;;;25.18;47.38
34566;BME280;20803;42.676;26.348;2023-09-19T09:02:38;98940.44;;;25.23;46.48
34566;BME280;20803;42.676;26.348;2023-09-19T09:05:08;98933.72;;;25.26;46.36
34566;BME280;20803;42.676;26.348;2023-09-19T09:07:36;98927.34;;;25.42;47.33
34566;BME280;20803;42.676;26.348;2023-09-19T09:10:03;98935.88;;;25.36;48.10
34566;BME280;20803;42.676;26.348;2023-09-19T09:12:29;98933.66;;;25.20;48.09
34566;BME280;20803;42.676;26.348;2023-09-19T09:14:54;98927.47;;;25.22;48.23
34566;BME280;20803;42.676;26.348;2023-09-19T09:17:25;98934.69;;;25.17;48.68
34566;BME280;20803;42.676;26.348;2023-09-19T09:19:54;98933.97;;;25.22;48.46
34566;BME280;20803;42.676;26.348;2023-09-19T09:22:20;98923.09;;;25.26;48.56
34566;BME280;20803;42.676;26.348;2023-09-19T09:24:56;98910.50;;;25.38;49.19
34566;BME280;20803;42.676;26.348;2023-09-19T09:27:30;98916.47;;;25.40;48.47
34566;BME280;20803;42.676;26.348;2023-09-19T09:29:56;98913.41;;;25.50;49.24
34566;BME280;20803;42.676;26.348;2023-09-19T09:32:29;98916.88;;;25.59;48.44
34566;BME280;20803;42.676;26.348;2023-09-19T09:34:58;98909.41;;;25.67;48.58
34566;BME280;20803;42.676;26.348;2023-09-19T09:37:24;98908.50;;;25.56;48.78
34566;BME280;20803;42.676;26.348;2023-09-19T09:39:52;98919.09;;;25.50;49.03
34566;BME280;20803;42.676;26.348;2023-09-19T09:42:38;98907.47;;;25.48;49.05
34566;BME280;20803;42.676;26.348;2023-09-19T09:45:24;98908.59;;;25.61;48.99
34566;BME280;20803;42.676;26.348;2023-09-19T09:47:59;98903.50;;;25.82;48.81
34566;BME280;20803;42.676;26.348;2023-09-19T09:50:35;98913.06;;;25.79;48.58
34566;BME280;20803;42.676;26.348;2023-09-19T09:53:26;98911.28;;;25.87;48.32
34566;BME280;20803;42.676;26.348;2023-09-19T09:56:07;98902.25;;;26.00;47.94
34566;BME280;20803;42.676;26.348;2023-09-19T10:01:13;98888.56;;;26.15;47.69
34566;BME280;20803;42.676;26.348;2023-09-19T10:03:41;98891.16;;;26.18;47.79
34566;BME280;20803;42.676;26.348;2023-09-19T10:06:14;98884.44;;;26.16;46.13
34566;BME280;20803;42.676;26.348;2023-09-19T10:09:08;98891.94;;;26.19;46.44
34566;BME280;20803;42.676;26.348;2023-09-19T10:11:44;98890.19;;;26.27;46.61
34566;BME280;20803;42.676;26.348;2023-09-19T10:14:13;98884.44;;;26.10;46.22
34566;BME280;20803;42.676;26.348;2023-09-19T10:16:47;98890.69;;;26.25;46.43
34566;BME280;20803;42.676;26.348;2023-09-19T10:19:21;98885.78;;;26.32;46.03
34566;BME280;20803;42.676;26.348;2023-09-19T10:21:50;98876.97;;;26.35;45.25
34566;BME280;20803;42.676;26.348;2023-09-19T10:24:17;98877.25;;;26.43;44.59
34566;BME280;20803;42.676;26.348;2023-09-19T10:26:45;98873.88;;;26.28;45.21
34566;BME280;20803;42.676;26.348;2023-09-19T10:29:13;98876.94;;;26.24;45.47
34566;BME280;20803;42.676;26.348;2023-09-19T10:31:39;98875.66;;;26.31;45.60
34566;BME280;20803;42.676;26.348;2023-09-19T10:34:06;98872.03;;;26.41;45.32
34566;BME280;20803;42.676;26.348;2023-09-19T10:36:36;98872.81;;;26.47;44.33
34566;BME280;20803;42.676;26.348;2023-09-19T10:39:04;98857.28;;;26.54;44.42
34566;BME280;20803;42.676;26.348;2023-09-19T10:41:32;98864.31;;;26.53;44.03
34566;BME280;20803;42.676;26.348;2023-09-19T10:44:03;98858.31;;;26.56;44.24
34566;BME280;20803;42.676;26.348;2023-09-19T10:46:32;98860.41;;;26.61;43.88
34566;BME280;20803;42.676;26.348;2023-09-19T10:49:02;98853.41;;;26.62;43.59
34566;BME280;20803;42.676;26.348;2023-09-19T10:51:38;98843.03;;;26.71;42.89
34566;BME280;20803;42.676;26.348;2023-09-19T10:54:11;98840.41;;;26.84;42.92
34566;BME280;20803;42.676;26.348;2023-09-19T10:56:42;98839.38;;;26.87;42.24
34566;BME280;20803;42.676;26.348;2023-09-19T10:59:12;98837.56;;;27.00;42.40
34566;BME280;20803;42.676;26.348;2023-09-19T11:01:49;98835.72;;;27.03;41.69
34566;BME280;20803;42.676;26.348;2023-09-19T11:07:06;98829.50;;;27.04;42.16
34566;BME280;20803;42.676;26.348;2023-09-19T11:09:47;98830.84;;;26.92;41.70
34566;BME280;20803;42.676;26.348;2023-09-19T11:15:08;98816.06;;;26.88;42.22
34566;BME280;20803;42.676;26.348;2023-09-19T11:17:39;98810.59;;;26.79;42.54
34566;BME280;20803;42.676;26.348;2023-09-19T11:30:42;98808.28;;;26.94;41.36
34566;BME280;20803;42.676;26.348;2023-09-19T11:33:20;98799.19;;;27.01;41.34
34566;BME280;20803;42.676;26.348;2023-09-19T11:36:16;98812.69;;;27.01;41.26
34566;BME280;20803;42.676;26.348;2023-09-19T11:43:53;98801.25;;;26.84;41.30
34566;BME280;20803;42.676;26.348;2023-09-19T11:46:24;98792.47;;;26.60;41.40
34566;BME280;20803;42.676;26.348;2023-09-19T11:48:51;98796.91;;;26.61;41.12
34566;BME280;20803;42.676;26.348;2023-09-19T11:51:18;98787.28;;;26.75;40.77
34566;BME280;20803;42.676;26.348;2023-09-19T11:53:54;98783.63;;;26.86;41.60
34566;BME280;20803;42.676;26.348;2023-09-19T11:56:24;98776.06;;;27.11;40.82
34566;BME280;20803;42.676;26.348;2023-09-19T11:58:52;98779.91;;;27.24;39.71
34566;BME280;20803;42.676;26.348;2023-09-19T12:01:31;98777.50;;;27.39;39.68
34566;BME280;20803;42.676;26.348;2023-09-19T12:03:59;98778.00;;;27.43;39.28
34566;BME280;20803;42.676;26.348;2023-09-19T12:06:29;98776.16;;;27.52;38.22
34566;BME280;20803;42.676;26.348;2023-09-19T12:08:55;98767.59;;;27.52;38.23
34566;BME280;20803;42.676;26.348;2023-09-19T12:11:28;98770.69;;;27.54;38.10
34566;BME280;20803;42.676;26.348;2023-09-19T12:13:55;98765.47;;;27.58;38.18
34566;BME280;20803;42.676;26.348;2023-09-19T12:16:24;98762.59;;;27.63;38.12
34566;BME280;20803;42.676;26.348;2023-09-19T12:18:50;98761.88;;;27.52;38.67
34566;BME280;20803;42.676;26.348;2023-09-19T12:21:30;98759.22;;;27.65;38.12
34566;BME280;20803;42.676;26.348;2023-09-19T12:24:12;98759.34;;;27.83;36.88
34566;BME280;20803;42.676;26.348;2023-09-19T12:26:44;98761.22;;;27.81;36.57
34566;BME280;20803;42.676;26.348;2023-09-19T12:29:20;98750.16;;;27.61;35.97
34566;BME280;20803;42.676;26.348;2023-09-19T12:31:53;98752.78;;;27.53;35.95
34566;BME280;20803;42.676;26.348;2023-09-19T12:34:32;98749.16;;;27.47;36.36
34566;BME280;20803;42.676;26.348;2023-09-19T12:37:16;98750.44;;;27.57;36.17
34566;BME280;20803;42.676;26.348;2023-09-19T12:39:52;98748.56;;;27.65;35.35
34566;BME280;20803;42.676;26.348;2023-09-19T12:42:24;98745.25;;;27.56;35.60
34566;BME280;20803;42.676;26.348;2023-09-19T12:44:54;98742.91;;;27.60;34.60
34566;BME280;20803;42.676;26.348;2023-09-19T12:47:22;98743.72;;;27.55;34.85
34566;BME280;20803;42.676;26.348;2023-09-19T12:50:11;98731.78;;;27.56;34.58
34566;BME280;20803;42.676;26.348;2023-09-19T12:52:48;98726.59;;;27.49;35.92
34566;BME280;20803;42.676;26.348;2023-09-19T12:55:30;98730.81;;;27.37;36.16
34566;BME280;20803;42.676;26.348;2023-09-19T12:58:13;98713.88;;;27.50;35.40
34566;BME280;20803;42.676;26.348;2023-09-19T13:00:42;98716.22;;;27.46;35.50
34566;BME280;20803;42.676;26.348;2023-09-19T13:03:12;98704.78;;;27.52;35.60
34566;BME280;20803;42.676;26.348;2023-09-19T13:06:02;98711.06;;;27.44;35.01
34566;BME280;20803;42.676;26.348;2023-09-19T13:08:39;98712.59;;;27.40;34.64
34566;BME280;20803;42.676;26.348;2023-09-19T13:11:14;98708.53;;;27.30;35.34
34566;BME280;20803;42.676;26.348;2023-09-19T13:13:45;98702.47;;;27.44;35.14
34566;BME280;20803;42.676;26.348;2023-09-19T13:16:13;98705.09;;;27.42;35.62
34566;BME280;20803;42.676;26.348;2023-09-19T13:18:51;98703.75;;;27.55;35.36
34566;BME280;20803;42.676;26.348;2023-09-19T13:21:27;98704.19;;;27.64;35.04
34566;BME280;20803;42.676;26.348;2023-09-19T13:23:55;98704.69;;;27.68;34.75
34566;BME280;20803;42.676;26.348;2023-09-19T13:26:27;98692.44;;;27.73;35.34
34566;BME280;20803;42.676;26.348;2023-09-19T13:28:54;98695.00;;;27.77;34.84
34566;BME280;20803;42.676;26.348;2023-09-19T13:31:20;98695.22;;;27.84;34.43
34566;BME280;20803;42.676;26.348;2023-09-19T13:33:46;98689.03;;;27.80;34.88
34566;BME280;20803;42.676;26.348;2023-09-19T13:36:12;98689.03;;;27.80;34.92
34566;BME280;20803;42.676;26.348;2023-09-19T13:38:41;98688.75;;;27.78;34.90